Data for 10/20/2009

Time Sea-Level Adjusted Pressure Absolute Pressure Temperature Relative Humidity Dew Point   
(mb) (inHg) (mb) (inHg) (C) (F) (%) (C) (F)
00:05 1016 30 845 24.95 3.1 37.6 93 2.1 35.8
00:10 1016 30 845 24.95 3.1 37.5 93 2.1 35.7
00:15 1016 30 845 24.95 3.1 37.5 93 2 35.6
00:20 1016 30 845 24.95 3.1 37.7 92 2 35.7
00:25 1016 30 845 24.95 3.1 37.7 93 2.1 35.9
00:30 1016 30 845 24.95 3.1 37.6 93 2.1 35.7
00:35 1016 30 845 24.95 3.1 37.6 93 2.1 35.8
00:40 1016 30 845 24.95 3 37.4 94 2.1 35.7
00:45 1016 30 845 24.95 3 37.4 94 2.1 35.7
00:50 1016 30 846 24.98 3 37.4 94 2.1 35.8
00:55 1016 30 846 24.98 3 37.4 94 2.1 35.8
01:00 1016 30 846 24.98 3 37.4 94 2.1 35.8
01:05 1016 30 846 24.98 3 37.4 94 2.1 35.8
01:10 1016 30 846 24.98 2.9 37.3 94 2 35.7
01:15 1017 30.03 846 24.98 2.9 37.3 94 2.1 35.7
01:20 1017 30.03 846 24.98 2.9 37.2 94 2 35.6
01:25 1017 30.03 846 24.98 2.8 37.1 94 2 35.6
01:30 1017 30.03 846 24.98 2.8 37.1 94 2 35.6
01:35 1017 30.03 846 24.98 2.9 37.1 94 2 35.7
01:40 1017 30.03 846 24.98 2.9 37.2 94 2 35.7
01:45 1017 30.03 846 24.98 2.8 37.1 94 2 35.5
01:50 1017 30.03 846 24.98 2.8 37.1 94 2 35.6
01:55 1017 30.03 846 24.98 2.9 37.2 94 2 35.6
02:00 1017 30.03 846 24.98 2.9 37.1 94 2 35.5
02:05 1017 30.03 846 24.98 2.8 37.1 94 2 35.5
02:10 1017 30.03 846 24.98 2.8 37.1 94 1.9 35.5
02:15 1017 30.03 846 24.98 2.9 37.2 94 2 35.5
02:20 1017 30.03 846 24.98 2.9 37.2 94 2 35.6
02:25 1017 30.03 846 24.98 2.8 37.1 94 1.9 35.5
02:30 1017 30.03 846 24.98 2.8 37 94 1.9 35.5
02:35 1017 30.03 846 24.98 2.8 37 94 1.8 35.3
02:40 1017 30.03 846 24.98 2.8 37 94 1.9 35.4
02:45 1017 30.03 846 24.98 2.9 37.1 94 1.9 35.5
02:50 1017 30.03 846 24.98 2.9 37.1 93 1.9 35.4
02:55 1017 30.03 846 24.98 2.8 37.1 93 1.9 35.4
03:00 1017 30.03 846 24.98 2.9 37.2 94 1.9 35.5
03:05 1017 30.03 846 24.98 2.8 37.1 94 1.9 35.5
03:10 1017 30.03 846 24.98 2.8 37 94 1.9 35.3
03:15 1017 30.03 846 24.98 2.7 36.9 94 1.8 35.3
03:20 1017 30.03 846 24.98 2.8 37 94 1.9 35.4
03:25 1017 30.03 846 24.98 2.8 37 94 1.9 35.5
03:30 1017 30.03 846 24.98 2.8 37 94 1.8 35.3
03:35 1017 30.03 846 24.98 2.7 36.9 94 1.8 35.2
03:40 1017 30.03 846 24.98 2.7 36.8 94 1.7 35.1
03:45 1017 30.03 846 24.98 2.7 36.8 94 1.8 35.2
03:50 1017 30.03 846 24.98 2.6 36.8 94 1.8 35.2
03:55 1017 30.03 846 24.98 2.7 36.8 94 1.8 35.2
04:00 1017 30.03 846 24.98 2.7 36.8 94 1.7 35.1
04:05 1017 30.03 846 24.98 2.7 36.9 94 1.8 35.2
04:10 1017 30.03 846 24.98 2.8 37 94 1.8 35.3
04:15 1017 30.03 846 24.98 2.8 37.1 93 1.8 35.3
04:20 1017 30.03 846 24.98 2.7 36.9 93 1.8 35.2
04:25 1017 30.03 846 24.98 2.8 37 93 1.8 35.2
04:30 1017 30.03 846 24.98 2.8 37.1 93 1.8 35.2
04:35 1017 30.03 846 24.98 2.7 36.9 93 1.7 35.1
04:40 1017 30.03 847 25.01 2.7 36.9 94 1.8 35.2
04:45 1017 30.03 847 25.01 2.8 37 93 1.8 35.3
04:50 1017 30.03 847 25.01 2.8 37 94 1.8 35.3
04:55 1018 30.06 847 25.01 2.7 36.9 94 1.8 35.3
05:00 1018 30.06 847 25.01 2.8 37.1 92 1.7 35.1
05:05 1018 30.06 847 25.01 2.8 37 93 1.7 35.1
05:10 1018 30.06 847 25.01 2.7 36.9 93 1.7 35
05:15 1018 30.06 847 25.01 2.8 37 93 1.7 35.1
05:20 1018 30.06 847 25.01 2.8 37 93 1.8 35.2
05:25 1018 30.06 847 25.01 2.8 37.1 93 1.8 35.2
05:30 1018 30.06 847 25.01 2.9 37.2 93 1.9 35.4
05:35 1018 30.06 847 25.01 2.8 37.1 94 1.9 35.4
05:40 1018 30.06 847 25.01 2.7 36.9 94 1.8 35.3
05:45 1018 30.06 847 25.01 2.7 36.8 94 1.8 35.2
05:50 1018 30.06 847 25.01 2.6 36.7 94 1.7 35.1
05:55 1018 30.06 847 25.01 2.5 36.5 94 1.6 34.9
06:00 1018 30.06 847 25.01 2.5 36.5 94 1.7 35
06:05 1018 30.06 847 25.01 2.5 36.5 94 1.7 35.1
06:10 1018 30.06 847 25.01 2.5 36.5 95 1.7 35.1
06:15 1018 30.06 847 25.01 2.4 36.4 95 1.7 35.1
06:20 1018 30.06 847 25.01 2.5 36.6 95 1.8 35.3
06:25 1018 30.06 847 25.01 2.6 36.7 95 1.8 35.2
06:30 1018 30.06 847 25.01 2.6 36.6 95 1.8 35.2
06:35 1018 30.06 847 25.01 2.5 36.6 94 1.7 35.1
06:40 1018 30.06 847 25.01 2.5 36.4 94 1.5 34.8
06:45 1018 30.06 847 25.01 2.3 36.2 93 1.3 34.4
06:50 1018 30.06 847 25.01 2.3 36.2 93 1.3 34.3
06:55 1018 30.06 847 25.01 2.3 36.2 93 1.3 34.3
07:00 1018 30.06 847 25.01 2.4 36.3 93 1.3 34.4
07:05 1018 30.06 847 25.01 2.3 36.2 93 1.3 34.4
07:10 1018 30.06 847 25.01 2.3 36.2 94 1.4 34.5
07:15 1018 30.06 847 25.01 2.3 36.2 94 1.4 34.6
07:20 1018 30.06 847 25.01 2.3 36.2 94 1.4 34.5
07:25 1018 30.06 847 25.01 2.3 36.1 93 1.3 34.3
07:30 1018 30.06 847 25.01 2.2 36 94 1.3 34.4
07:35 1018 30.06 847 25.01 2.4 36.2 93 1.3 34.4
07:40 1018 30.06 847 25.01 2.2 36 94 1.4 34.5
07:45 1018 30.06 847 25.01 2.3 36.1 93 1.3 34.4
07:50 1018 30.06 847 25.01 2.3 36.2 93 1.3 34.4
07:55 1018 30.06 847 25.01 2.3 36.1 93 1.3 34.3
08:00 1018 30.06 847 25.01 2.2 36 93 1.2 34.2
08:05 1018 30.06 847 25.01 2.2 36 94 1.3 34.4
08:10 1018 30.06 848 25.04 2.4 36.3 93 1.3 34.4
08:15 1018 30.06 848 25.04 2.4 36.3 93 1.4 34.5
08:20 1018 30.06 848 25.04 2.4 36.3 92 1.3 34.3
08:25 1018 30.06 848 25.04 2.4 36.4 93 1.4 34.5
08:30 1018 30.06 848 25.04 2.6 36.6 92 1.4 34.6
08:35 1018 30.06 848 25.04 2.7 36.8 92 1.4 34.6
08:40 1019 30.09 848 25.04 2.8 37 91 1.4 34.6
08:45 1019 30.09 848 25.04 2.7 36.9 92 1.5 34.7
08:50 1019 30.09 848 25.04 2.6 36.7 92 1.4 34.6
08:55 1019 30.09 848 25.04 2.6 36.7 92 1.5 34.6
09:00 1019 30.09 848 25.04 2.7 36.8 92 1.5 34.6
09:05 1019 30.09 848 25.04 2.7 36.9 92 1.5 34.7
09:10 1019 30.09 848 25.04 2.7 36.9 92 1.5 34.8
09:15 1019 30.09 848 25.04 2.8 37 92 1.6 34.9
09:20 1019 30.09 848 25.04 2.8 37.1 91 1.5 34.6
09:25 1019 30.09 848 25.04 2.9 37.2 91 1.6 34.9
09:30 1019 30.09 848 25.04 2.9 37.2 91 1.6 34.9
09:35 1019 30.09 848 25.04 3 37.3 91 1.6 34.9
09:40 1019 30.09 848 25.04 3 37.3 91 1.7 35
09:45 1019 30.09 848 25.04 3 37.4 91 1.6 34.9
09:50 1019 30.09 848 25.04 3.1 37.6 90 1.7 35
09:55 1019 30.09 848 25.04 3.1 37.6 91 1.7 35.1
10:00 1019 30.09 848 25.04 3.1 37.5 91 1.7 35.1
10:05 1019 30.09 848 25.04 3.2 37.8 89 1.6 34.9
10:10 1019 30.09 848 25.04 3.2 37.8 90 1.7 35
10:15 1019 30.09 848 25.04 2.9 37.2 90 1.4 34.5
10:20 1019 30.09 848 25.04 2.7 36.9 91 1.4 34.5
10:25 1019 30.09 848 25.04 2.9 37.2 92 1.8 35.2
10:30 1019 30.09 848 25.04 3.3 38 88 1.6 34.8
10:35 1019 30.09 849 25.07 3.4 38.2 89 1.8 35.3
10:40 1019 30.09 849 25.07 3.6 38.4 87 1.6 34.8
10:45 1019 30.09 849 25.07 3.4 38.1 90 1.9 35.4
10:50 1019 30.09 849 25.07 3.6 38.6 88 1.8 35.2
10:55 1019 30.09 849 25.07 3.6 38.5 89 1.9 35.5
11:00 1019 30.09 849 25.07 3.7 38.6 86 1.6 34.9
11:05 1019 30.09 849 25.07 3.8 38.8 86 1.6 34.8
11:10 1019 30.09 849 25.07 3.9 39.1 84 1.5 34.6
11:15 1020 30.12 849 25.07 3.7 38.7 86 1.6 34.8
11:20 1020 30.12 849 25.07 3.8 38.8 87 1.8 35.2
11:25 1020 30.12 849 25.07 4.1 39.4 84 1.6 34.9
11:30 1020 30.12 849 25.07 4.4 39.9 84 1.9 35.5
11:35 1020 30.12 849 25.07 4.4 39.8 82 1.5 34.7
11:40 1020 30.12 849 25.07 4.2 39.6 82 1.4 34.5
11:45 1020 30.12 849 25.07 4.5 40 83 1.8 35.2
11:50 1020 30.12 849 25.07 4.5 40.2 82 1.8 35.2
11:55 1020 30.12 849 25.07 4.9 40.8 83 2.2 36
12:00 1020 30.12 849 25.07 4.9 40.9 81 2 35.5
12:05 1020 30.12 849 25.07 4.6 40.3 83 2 35.6
12:10 1020 30.12 849 25.07 4.7 40.5 82 1.9 35.4
12:15 1020 30.12 849 25.07 5.2 41.3 82 2.3 36.1
12:20 1020 30.12 849 25.07 5.5 41.9 79 2.2 35.9
12:25 1020 30.12 849 25.07 5.5 41.9 81 2.4 36.4
12:30 1020 30.12 849 25.07 5.6 42.1 78 2 35.6
12:35 1020 30.12 849 25.07 5.7 42.2 79 2.3 36.2
12:40 1020 30.12 849 25.07 5.8 42.4 76 1.8 35.3
12:45 1020 30.12 849 25.07 5.9 42.6 76 2 35.5
12:50 1020 30.12 849 25.07 5.8 42.5 77 2.2 35.9
12:55 1020 30.12 849 25.07 5.8 42.4 76 1.9 35.5
13:00 1020 30.12 849 25.07 5.7 42.3 77 2 35.6
13:05 1020 30.12 849 25.07 5.6 42 78 2.1 35.8
13:10 1020 30.12 849 25.07 5.6 42.1 78 2.1 35.9
13:15 1020 30.12 849 25.07 5.7 42.2 76 1.8 35.2
13:20 1020 30.12 849 25.07 5.8 42.4 73 1.4 34.4
13:25 1020 30.12 849 25.07 5.8 42.5 76 1.9 35.4
13:30 1020 30.12 849 25.07 5.6 42 77 1.9 35.4
13:35 1020 30.12 849 25.07 5.5 42 77 1.8 35.3
13:40 1020 30.12 849 25.07 5.7 42.2 77 2 35.6
13:45 1020 30.12 849 25.07 5.6 42.1 78 2.1 35.9
13:50 1020 30.12 849 25.07 5.4 41.8 81 2.4 36.3
13:55 1020 30.12 849 25.07 5.6 42.1 77 2 35.6
14:00 1020 30.12 849 25.07 5.6 42 76 1.7 35.1
14:05 1020 30.12 849 25.07 5.7 42.2 75 1.5 34.7
14:10 1020 30.12 849 25.07 5.7 42.3 75 1.6 34.9
14:15 1020 30.12 849 25.07 5.9 42.5 75 1.9 35.3
14:20 1020 30.12 849 25.07 5.8 42.4 75 1.7 35.1
14:25 1020 30.12 849 25.07 5.8 42.5 74 1.5 34.8
14:30 1020 30.12 849 25.07 5.7 42.3 76 1.8 35.3
14:35 1020 30.12 849 25.07 5.7 42.3 76 1.9 35.4
14:40 1020 30.12 849 25.07 5.7 42.2 77 1.9 35.5
14:45 1020 30.12 849 25.07 5.8 42.4 76 1.9 35.4
14:50 1020 30.12 849 25.07 5.7 42.2 77 2 35.6
14:55 1020 30.12 849 25.07 5.7 42.2 76 1.8 35.2
15:00 1020 30.12 849 25.07 5.8 42.5 77 2.1 35.8
15:05 1020 30.12 849 25.07 6 42.8 76 2.2 35.9
15:10 1020 30.12 849 25.07 6.2 43.2 76 2.3 36.1
15:15 1020 30.12 849 25.07 6.6 43.9 71 1.7 35.1
15:20 1020 30.12 849 25.07 6.6 43.9 74 2.3 36.2
15:25 1020 30.12 849 25.07 6.4 43.5 72 1.7 35.1
15:30 1020 30.12 849 25.07 6.6 43.9 72 1.9 35.4
15:35 1020 30.12 849 25.07 6.1 43 72 1.4 34.5
15:40 1020 30.12 849 25.07 6.6 43.9 69 1.3 34.4
15:45 1020 30.12 849 25.07 6.4 43.5 73 2 35.6
15:50 1020 30.12 849 25.07 6 42.9 73 1.5 34.7
15:55 1020 30.12 849 25.07 6.4 43.6 71 1.5 34.7
16:00 1020 30.12 849 25.07 6.8 44.2 70 1.6 35
16:05 1020 30.12 849 25.07 6.9 44.4 69 1.5 34.7
16:10 1020 30.12 849 25.07 7 44.5 68 1.5 34.6
16:15 1020 30.12 849 25.07 7 44.6 68 1.5 34.8
16:20 1020 30.12 849 25.07 6.9 44.4 69 1.6 34.8
16:25 1020 30.12 849 25.07 7 44.6 67 1.4 34.5
16:30 1020 30.12 849 25.07 6.9 44.5 67 1.2 34.2
16:35 1020 30.12 849 25.07 7 44.6 67 1.2 34.2
16:40 1020 30.12 849 25.07 7.3 45.1 65 1.2 34.2
16:45 1020 30.12 849 25.07 6.9 44.4 68 1.4 34.5
16:50 1020 30.12 849 25.07 7.1 44.8 66 1.2 34.2
16:55 1020 30.12 849 25.07 6.9 44.4 67 1.2 34.2
17:00 1020 30.12 849 25.07 6.9 44.4 66 1.1 33.9
17:05 1020 30.12 849 25.07 7 44.6 67 1.3 34.4
17:10 1020 30.12 849 25.07 6.7 44 68 1.3 34.3
17:15 1020 30.12 850 25.1 6.5 43.6 69 1.1 34
17:20 1020 30.12 850 25.1 6.4 43.4 68 1 33.8
17:25 1020 30.12 850 25.1 6.3 43.4 69 1 33.8
17:30 1020 30.12 850 25.1 6.3 43.3 70 1.3 34.3
17:35 1020 30.12 850 25.1 6.2 43.2 70 1.3 34.3
17:40 1020 30.12 850 25.1 6.4 43.4 69 1.1 34.1
17:45 1020 30.12 850 25.1 6.4 43.6 70 1.3 34.4
17:50 1020 30.12 850 25.1 6.4 43.6 69 1.1 33.9
17:55 1020 30.12 850 25.1 6.3 43.4 69 1.2 34.1
18:00 1020 30.12 850 25.1 6.1 43 69 0.9 33.7
18:05 1021 30.15 850 25.1 6.1 42.9 70 1.1 33.9
18:10 1021 30.15 850 25.1 6 42.8 71 1.2 34.2
18:15 1021 30.15 850 25.1 5.8 42.5 72 1.2 34.2
18:20 1021 30.15 850 25.1 6 42.8 72 1.3 34.3
18:25 1021 30.15 850 25.1 5.7 42.3 74 1.4 34.6
18:30 1021 30.15 850 25.1 5.5 41.9 74 1.2 34.2
18:35 1021 30.15 850 25.1 5.5 42 73 1.1 34
18:40 1021 30.15 850 25.1 5.5 41.9 74 1.3 34.4
18:45 1021 30.15 850 25.1 5.5 41.9 74 1.2 34.2
18:50 1021 30.15 850 25.1 5.5 41.8 74 1.2 34.1
18:55 1021 30.15 850 25.1 5.4 41.7 74 1.1 34.1
19:00 1021 30.15 850 25.1 5.4 41.8 74 1.1 34
19:05 1021 30.15 850 25.1 5.4 41.7 76 1.4 34.5
19:10 1021 30.15 850 25.1 5.2 41.4 77 1.6 34.8
19:15 1021 30.15 850 25.1 5.2 41.3 77 1.6 34.8
19:20 1021 30.15 850 25.1 5.1 41.2 78 1.6 34.8
19:25 1021 30.15 850 25.1 4.9 40.9 79 1.7 35
19:30 1021 30.15 850 25.1 4.8 40.7 82 2 35.6
19:35 1021 30.15 850 25.1 4.7 40.4 82 1.9 35.5
19:40 1021 30.15 850 25.1 4.6 40.3 83 1.9 35.5
19:45 1021 30.15 850 25.1 4.6 40.4 82 1.8 35.2
19:50 1021 30.15 850 25.1 4.5 40.1 84 2 35.6
19:55 1021 30.15 850 25.1 4.3 39.7 86 2.1 35.8
20:00 1021 30.15 850 25.1 4.1 39.3 86 2 35.6
20:05 1021 30.15 850 25.1 4.1 39.3 86 1.9 35.4
20:10 1021 30.15 850 25.1 4 39.3 87 2.1 35.7
20:15 1021 30.15 851 25.13 3.9 39 87 2 35.5
20:20 1021 30.15 850 25.1 3.9 39 87 1.8 35.3
20:25 1021 30.15 851 25.13 3.8 38.8 88 1.9 35.4
20:30 1021 30.15 851 25.13 3.7 38.6 87 1.7 35.1
20:35 1021 30.15 851 25.13 3.6 38.4 88 1.8 35.2
20:40 1021 30.15 851 25.13 3.4 38.1 88 1.7 35
20:45 1021 30.15 851 25.13 3.2 37.7 88 1.4 34.6
20:50 1021 30.15 851 25.13 2.9 37.3 88 1.2 34.2
20:55 1021 30.15 851 25.13 2.6 36.7 90 1.1 33.9
21:00 1021 30.15 851 25.13 2.1 35.8 92 0.9 33.6
21:05 1021 30.15 851 25.13 1.8 35.3 92 0.6 33.1
21:10 1021 30.15 851 25.13 2 35.6 88 0.2 32.3
21:15 1021 30.15 851 25.13 2.3 36.2 86 0.3 32.5
21:20 1021 30.15 851 25.13 2.5 36.5 85 0.2 32.4
21:25 1021 30.15 851 25.13 2.8 37 84 0.3 32.6
21:30 1021 30.15 851 25.13 2.8 37.1 84 0.5 32.8
21:35 1022 30.18 851 25.13 2.7 36.9 85 0.4 32.8
21:40 1022 30.18 851 25.13 2.8 37.1 84 0.5 32.8
21:45 1022 30.18 851 25.13 2.6 36.8 85 0.3 32.6
21:50 1022 30.18 851 25.13 2.5 36.5 86 0.4 32.7
21:55 1022 30.18 851 25.13 2.4 36.4 86 0.4 32.7
22:00 1022 30.18 851 25.13 2.3 36.2 87 0.3 32.6
22:05 1022 30.18 851 25.13 2 35.7 88 0.2 32.4
22:10 1022 30.18 851 25.13 2 35.5 88 0.1 32.2
22:15 1022 30.18 851 25.13 2 35.5 88 0.2 32.4
22:20 1022 30.18 851 25.13 1.9 35.3 89 0.2 32.4
22:25 1022 30.18 851 25.13 1.8 35.2 90 0.3 32.5
22:30 1022 30.18 851 25.13 1.7 35.1 89 0.2 32.3
22:35 1022 30.18 851 25.13 1.6 34.9 91 0.3 32.5
22:40 1022 30.18 851 25.13 1.6 34.8 91 0.3 32.5
22:45 1022 30.18 851 25.13 1.5 34.8 91 0.2 32.3
22:50 1022 30.18 851 25.13 1.3 34.3 92 0.1 32.1
22:55 1022 30.18 851 25.13 1.1 34 92 -0.1 31.8
23:00 1022 30.18 851 25.13 1 33.8 92 -0.2 31.7
23:05 1022 30.18 851 25.13 0.9 33.7 93 -0.1 31.8
23:10 1022 30.18 851 25.13 1.1 34 93 0.1 32.1
23:15 1022 30.18 851 25.13 1.2 34.2 92 0.1 32.2
23:20 1022 30.18 851 25.13 1.3 34.4 92 0.1 32.2
23:25 1022 30.18 851 25.13 1.5 34.7 91 0.1 32.3
23:30 1022 30.18 851 25.13 1.4 34.5 92 0.2 32.4
23:35 1022 30.18 851 25.13 1.2 34.2 92 0.1 32.2
23:40 1022 30.18 851 25.13 1 33.9 93 -0 32
23:45 1022 30.18 851 25.13 1 33.8 93 0 32.1
23:50 1022 30.18 851 25.13 1 33.8 93 -0 31.9
23:55 1022 30.18 851 25.13 0.9 33.6 93 -0.1 31.8
24:00 1022 30.18 851 25.13 0.8 33.5 93 -0.1 31.7